Time;durP1;ratioP1;P1;durP2;ratioP2;P2;SDS_P1;SDS_P2;PMS_P1;PMS_P2;Temp;Humidity;BMP_temperature;BMP_pressure;BME280_temperature;BME280_humidity;BME280_pressure;Samples;Min_cycle;Max_cycle;Signal;HPM_P1;HPM_P2
2022/06/02 00:00:47;;;;;;;2.17;1.97;;;12.40;99.90;;;;;;5035219;28;20425;-69
2022/06/02 00:03:41;;;;;;;3.10;2.90;;;12.50;99.90;;;;;;5035608;28;20441;-68
2022/06/02 00:06:25;;;;;;;2.90;2.70;;;12.40;99.90;;;;;;5036822;28;20943;-69
2022/06/02 00:09:23;;;;;;;2.63;2.43;;;12.40;99.90;;;;;;5035293;28;20430;-68
2022/06/02 00:12:24;;;;;;;2.77;2.57;;;12.40;99.90;;;;;;5037309;28;20395;-69
2022/06/02 00:15:01;;;;;;;2.77;2.57;;;12.40;99.90;;;;;;5038664;28;20456;-69
2022/06/02 00:17:32;;;;;;;2.43;2.20;;;12.50;99.90;;;;;;5038633;28;20770;-69
2022/06/02 00:20:29;;;;;;;2.00;1.90;;;12.40;99.90;;;;;;5034592;28;20411;-69
2022/06/02 00:23:10;;;;;;;2.43;2.23;;;12.40;99.90;;;;;;5028179;28;20450;-67
2022/06/02 00:26:17;;;;;;;2.50;2.30;;;12.40;99.90;;;;;;5034389;28;20438;-69
2022/06/02 00:28:52;;;;;;;4.73;2.77;;;12.40;99.90;;;;;;5034314;28;20417;-69
2022/06/02 00:31:48;;;;;;;2.50;2.30;;;12.40;99.90;;;;;;5034306;28;20413;-69
2022/06/02 00:34:33;;;;;;;3.07;2.37;;;12.40;99.90;;;;;;5034768;28;20607;-69
2022/06/02 00:37:30;;;;;;;3.03;2.80;;;12.40;99.90;;;;;;5036427;28;20415;-69
2022/06/02 00:39:57;;;;;;;3.40;2.90;;;12.40;99.90;;;;;;5007775;28;20418;-69
2022/06/02 00:42:26;;;;;;;2.83;2.63;;;12.40;99.90;;;;;;5034502;28;20438;-68
2022/06/02 00:45:06;;;;;;;2.90;2.70;;;12.40;99.90;;;;;;5035989;28;20410;-68
2022/06/02 00:47:52;;;;;;;2.30;2.10;;;12.30;99.90;;;;;;5036455;28;20532;-68
2022/06/02 00:50:52;;;;;;;1.93;1.83;;;12.30;99.90;;;;;;4994928;28;20422;-69
2022/06/02 00:57:30;;;;;;;4.57;2.40;;;12.20;99.90;;;;;;5018123;28;20454;-69
2022/06/02 01:00:15;;;;;;;2.07;1.97;;;12.20;99.90;;;;;;5036397;28;20414;-68
2022/06/02 01:03:16;;;;;;;2.40;2.00;;;12.20;99.90;;;;;;5035551;28;20425;-69
2022/06/02 01:06:23;;;;;;;2.43;2.17;;;12.10;99.90;;;;;;4993501;28;20453;-69
2022/06/02 01:09:19;;;;;;;2.43;2.13;;;12.10;99.90;;;;;;4993711;28;20517;-68
2022/06/02 01:12:12;;;;;;;2.33;2.13;;;12.00;99.90;;;;;;5033306;28;20888;-69
2022/06/02 01:15:10;;;;;;;1.83;1.73;;;11.90;99.90;;;;;;5033448;28;20556;-69
2022/06/02 01:17:45;;;;;;;2.83;2.03;;;11.90;99.90;;;;;;5033812;28;20410;-69
2022/06/02 01:20:43;;;;;;;1.90;1.80;;;11.80;99.90;;;;;;5033576;28;20401;-69
2022/06/02 01:23:14;;;;;;;2.30;2.10;;;11.80;99.90;;;;;;5032639;28;20790;-69
2022/06/02 01:26:09;;;;;;;2.40;2.17;;;11.70;99.90;;;;;;5032225;28;20454;-69
2022/06/02 01:28:56;;;;;;;2.37;2.20;;;11.60;99.90;;;;;;5032503;28;20777;-69
2022/06/02 01:31:40;;;;;;;2.60;2.23;;;11.60;99.90;;;;;;5032142;28;20465;-68
2022/06/02 01:34:29;;;;;;;1.70;1.60;;;11.60;99.90;;;;;;5032443;28;20489;-68
2022/06/02 01:37:16;;;;;;;2.60;2.40;;;11.50;99.90;;;;;;5032940;28;20477;-68
2022/06/02 01:39:50;;;;;;;2.60;2.40;;;11.50;99.90;;;;;;5032995;28;20410;-70
2022/06/02 01:42:38;;;;;;;1.87;1.77;;;11.40;99.90;;;;;;5033095;28;20469;-69
2022/06/02 01:45:42;;;;;;;3.10;2.30;;;11.40;99.90;;;;;;5032953;28;20464;-69
2022/06/02 01:48:15;;;;;;;3.50;2.30;;;11.30;99.90;;;;;;5033424;28;20419;-69
2022/06/02 01:51:13;;;;;;;3.50;2.30;;;11.30;99.90;;;;;;5033142;28;20432;-69
2022/06/02 01:53:53;;;;;;;3.77;3.47;;;11.20;99.90;;;;;;5038487;23;20517;-67
2022/06/02 01:56:39;;;;;;;3.10;2.80;;;11.10;99.90;;;;;;5011029;28;20447;-67
2022/06/02 01:59:36;;;;;;;3.20;2.30;;;11.10;99.90;;;;;;5011245;28;20474;-67
2022/06/02 02:02:25;;;;;;;2.97;2.57;;;10.90;99.90;;;;;;5011108;28;20409;-68
2022/06/02 02:05:41;;;;;;;2.43;2.23;;;10.90;99.90;;;;;;5011463;28;20602;-68
2022/06/02 02:08:19;;;;;;;6.03;3.10;;;10.90;99.90;;;;;;4950571;29;20434;-67
2022/06/02 02:10:59;;;;;;;4.23;3.10;;;10.80;99.90;;;;;;5003714;28;20415;-68
2022/06/02 02:13:52;;;;;;;3.37;3.07;;;10.80;99.90;;;;;;5011286;28;20832;-68
2022/06/02 02:16:42;;;;;;;3.13;2.73;;;10.70;99.90;;;;;;5009898;28;20411;-68
2022/06/02 02:19:25;;;;;;;2.83;2.30;;;10.80;99.90;;;;;;5011751;28;20395;-68
2022/06/02 02:22:04;;;;;;;2.50;2.30;;;10.70;99.90;;;;;;5011145;28;20418;-68
2022/06/02 02:24:57;;;;;;;3.13;2.93;;;10.70;99.90;;;;;;5011005;28;20868;-68
2022/06/02 02:28:03;;;;;;;2.67;2.40;;;10.70;99.90;;;;;;5010954;28;20506;-67
2022/06/02 02:31:02;;;;;;;3.53;3.03;;;10.70;99.90;;;;;;5011110;28;20403;-67
2022/06/02 02:33:36;;;;;;;2.50;2.30;;;10.70;99.90;;;;;;5009676;28;20439;-67
2022/06/02 02:36:16;;;;;;;2.50;2.17;;;10.80;99.90;;;;;;5010892;28;20972;-66
2022/06/02 02:39:20;;;;;;;3.10;2.57;;;10.70;99.90;;;;;;5011024;28;21071;-67
2022/06/02 02:42:06;;;;;;;2.77;2.57;;;10.60;99.90;;;;;;5011090;28;20438;-67
2022/06/02 02:44:46;;;;;;;2.27;2.10;;;10.70;99.90;;;;;;5014508;28;20940;-67
2022/06/02 02:47:22;;;;;;;2.53;2.33;;;10.60;99.90;;;;;;5014266;28;20849;-66
2022/06/02 02:49:56;;;;;;;2.70;2.50;;;10.60;99.90;;;;;;5014441;28;20397;-67
2022/06/02 02:52:43;;;;;;;2.97;2.50;;;10.50;99.90;;;;;;5014196;28;20445;-66
2022/06/02 02:55:31;;;;;;;2.13;1.90;;;10.50;99.90;;;;;;5014324;28;20959;-69
2022/06/02 02:58:10;;;;;;;4.10;2.43;;;10.50;99.90;;;;;;5014353;28;20810;-67
2022/06/02 03:00:46;;;;;;;3.20;2.50;;;10.60;99.90;;;;;;5014300;28;20450;-66
2022/06/02 03:03:24;;;;;;;2.13;1.93;;;10.50;99.90;;;;;;5014379;28;20419;-67
2022/06/02 03:06:16;;;;;;;2.37;2.17;;;10.40;99.90;;;;;;5013908;28;20458;-67
2022/06/02 03:09:21;;;;;;;2.20;2.00;;;10.40;99.90;;;;;;5013865;28;20486;-67
2022/06/02 03:11:52;;;;;;;2.30;2.10;;;10.30;99.90;;;;;;5013970;28;20797;-66
2022/06/02 03:14:39;;;;;;;2.40;2.20;;;10.30;99.90;;;;;;5013895;28;20433;-68
2022/06/02 03:17:27;;;;;;;2.50;1.93;;;10.30;99.90;;;;;;5014081;28;20770;-67
2022/06/02 03:20:02;;;;;;;2.20;2.00;;;10.20;99.90;;;;;;5014154;28;20399;-68
2022/06/02 03:23:06;;;;;;;2.67;2.50;;;10.20;99.90;;;;;;5013807;28;20426;-67
2022/06/02 03:25:53;;;;;;;2.13;1.93;;;10.30;99.90;;;;;;5013666;28;20418;-67
2022/06/02 03:28:38;;;;;;;2.57;2.07;;;10.40;99.90;;;;;;5012436;28;20411;-66
2022/06/02 03:31:24;;;;;;;1.70;1.60;;;10.30;99.90;;;;;;5013857;28;20459;-67
2022/06/02 03:34:01;;;;;;;2.23;2.03;;;10.30;99.90;;;;;;5013716;28;20472;-67
2022/06/02 03:36:50;;;;;;;1.87;1.77;;;10.30;99.90;;;;;;5013616;28;20417;-67
2022/06/02 03:39:33;;;;;;;2.70;2.50;;;10.30;99.90;;;;;;5013557;28;20902;-66
2022/06/02 03:42:15;;;;;;;3.20;2.90;;;10.40;99.90;;;;;;5013432;28;20487;-67
2022/06/02 03:45:09;;;;;;;2.67;2.30;;;10.50;99.90;;;;;;5013274;28;20411;-68
2022/06/02 03:48:11;;;;;;;3.13;2.50;;;10.50;99.90;;;;;;5013485;28;20459;-67
2022/06/02 03:50:58;;;;;;;3.50;3.20;;;10.60;99.90;;;;;;5013335;28;20391;-67
2022/06/02 03:54:00;;;;;;;4.47;3.00;;;10.70;99.90;;;;;;5013043;28;20808;-67
2022/06/02 03:57:03;;;;;;;4.23;2.47;;;10.70;99.90;;;;;;5013718;28;20493;-67
2022/06/02 03:59:34;;;;;;;2.40;2.20;;;10.70;99.90;;;;;;4980298;28;20418;-68
2022/06/02 04:02:09;;;;;;;2.67;2.43;;;10.80;99.90;;;;;;5013718;28;20408;-67
2022/06/02 04:05:09;;;;;;;4.07;2.67;;;10.90;99.90;;;;;;5013383;28;20399;-68
2022/06/02 04:07:52;;;;;;;2.40;2.20;;;11.00;99.90;;;;;;5013425;28;20455;-68
2022/06/02 04:10:36;;;;;;;2.87;2.67;;;11.00;99.90;;;;;;5013259;28;20407;-69
2022/06/02 04:13:38;;;;;;;2.57;2.37;;;11.00;99.90;;;;;;5013202;28;20438;-67
2022/06/02 04:16:15;;;;;;;2.03;1.87;;;11.00;99.90;;;;;;5013014;28;20403;-68
2022/06/02 04:20:34;;;;;;;6.70;2.80;;;11.10;99.90;;;;;;5013062;28;20407;-67
2022/06/02 04:22:00;;;;;;;3.30;2.43;;;11.10;99.90;;;;;;5012592;28;20499;-67
2022/06/02 04:24:36;;;;;;;2.57;2.37;;;11.10;99.90;;;;;;5012727;28;20407;-67
2022/06/02 04:27:47;;;;;;;2.90;2.70;;;11.10;99.90;;;;;;5012575;28;20523;-68
2022/06/02 04:30:28;;;;;;;2.47;2.03;;;11.30;99.90;;;;;;4951802;29;20512;-67
2022/06/02 04:33:08;;;;;;;2.13;1.97;;;11.30;99.90;;;;;;5005941;28;20431;-68
2022/06/02 04:35:40;;;;;;;3.63;2.47;;;11.50;99.90;;;;;;5012479;28;20407;-67
2022/06/02 04:38:30;;;;;;;3.70;3.40;;;11.70;99.90;;;;;;5012520;28;20399;-66
2022/06/02 04:41:13;;;;;;;2.37;2.17;;;11.90;99.90;;;;;;5012288;28;20403;-67
2022/06/02 04:44:04;;;;;;;1.97;1.83;;;12.00;99.90;;;;;;5012376;28;20944;-67
2022/06/02 04:46:41;;;;;;;2.93;2.47;;;11.90;99.90;;;;;;5012091;28;20988;-68
2022/06/02 04:49:52;;;;;;;4.60;3.10;;;12.10;99.90;;;;;;5012348;28;20736;-66
2022/06/02 04:52:22;;;;;;;3.13;2.70;;;12.10;99.90;;;;;;5012105;28;20957;-66
2022/06/02 04:55:16;;;;;;;2.63;2.40;;;12.40;99.90;;;;;;5012172;28;20465;-68
2022/06/02 04:58:08;;;;;;;8.43;2.57;;;12.30;99.90;;;;;;4983952;28;20411;-68
2022/06/02 05:00:59;;;;;;;2.80;2.47;;;12.30;99.90;;;;;;5012414;28;20415;-67
2022/06/02 05:03:45;;;;;;;2.70;2.50;;;12.60;99.90;;;;;;5012203;28;20434;-67
2022/06/02 05:06:29;;;;;;;2.60;2.40;;;12.70;99.90;;;;;;5011062;28;20450;-67
2022/06/02 05:09:19;;;;;;;3.30;3.00;;;12.80;99.90;;;;;;5012203;28;20406;-67
2022/06/02 05:12:07;;;;;;;3.63;2.80;;;12.70;99.90;;;;;;5011761;28;20407;-67
2022/06/02 05:14:42;;;;;;;3.00;2.70;;;12.80;99.90;;;;;;5012611;28;20885;-68
2022/06/02 05:17:28;;;;;;;3.10;2.80;;;12.90;99.90;;;;;;5011890;28;20418;-68
2022/06/02 05:20:23;;;;;;;3.60;3.30;;;12.60;99.90;;;;;;5012799;28;20867;-67
2022/06/02 05:23:06;;;;;;;4.00;2.97;;;12.70;99.90;;;;;;5011881;28;20481;-67
2022/06/02 05:26:09;;;;;;;2.50;2.30;;;12.60;99.90;;;;;;5010202;28;20516;-68
2022/06/02 05:28:59;;;;;;;2.47;2.30;;;12.70;99.90;;;;;;5011852;28;20506;-68
2022/06/02 05:31:43;;;;;;;2.67;2.20;;;12.90;99.90;;;;;;5011858;28;20746;-68
2022/06/02 05:34:41;;;;;;;2.73;2.20;;;13.00;99.90;;;;;;5011730;28;20423;-69
2022/06/02 05:37:20;;;;;;;3.77;3.00;;;13.10;99.90;;;;;;5012006;28;20483;-68
2022/06/02 05:39:59;;;;;;;3.60;3.30;;;13.40;99.90;;;;;;5011941;28;20407;-68
2022/06/02 05:42:46;;;;;;;3.60;2.97;;;13.40;99.90;;;;;;5011742;28;20429;-68
2022/06/02 05:45:40;;;;;;;3.00;2.70;;;13.20;99.90;;;;;;5011748;28;20827;-68
2022/06/02 05:48:36;;;;;;;3.80;3.00;;;13.70;99.90;;;;;;5011841;28;20411;-69
2022/06/02 05:51:24;;;;;;;4.57;2.60;;;14.50;99.90;;;;;;5011630;28;20489;-67
2022/06/02 05:54:09;;;;;;;3.70;3.30;;;15.10;99.90;;;;;;5011488;28;20490;-68
2022/06/02 05:57:00;;;;;;;3.60;3.07;;;14.40;99.90;;;;;;5011384;28;20417;-67
2022/06/02 05:59:32;;;;;;;4.37;2.80;;;15.70;99.90;;;;;;5011713;28;20407;-67
2022/06/02 06:02:14;;;;;;;3.13;2.77;;;16.90;99.90;;;;;;5011366;28;20417;-67
2022/06/02 06:05:08;;;;;;;3.60;3.20;;;17.20;99.90;;;;;;5011303;28;20413;-68
2022/06/02 06:08:11;;;;;;;3.80;3.53;;;16.30;99.90;;;;;;5011736;28;20498;-68
2022/06/02 06:10:46;;;;;;;3.53;3.17;;;17.90;99.90;;;;;;5011419;28;20422;-69
2022/06/02 06:13:47;;;;;;;3.33;3.03;;;18.40;99.90;;;;;;5011288;28;20426;-67
2022/06/02 06:16:30;;;;;;;3.67;3.33;;;17.40;99.90;;;;;;5011277;28;20439;-67
2022/06/02 06:19:19;;;;;;;3.20;2.90;;;18.00;99.90;;;;;;5015191;28;20411;-67
2022/06/02 06:22:02;;;;;;;7.90;3.80;;;17.40;99.90;;;;;;5015012;28;20920;-68
2022/06/02 06:25:06;;;;;;;3.37;3.07;;;17.50;99.90;;;;;;5014757;28;20416;-67
2022/06/02 06:28:09;;;;;;;4.33;3.20;;;17.50;99.90;;;;;;4954103;29;20970;-67
2022/06/02 06:30:53;;;;;;;4.37;3.43;;;19.20;99.90;;;;;;5014642;28;20783;-67
2022/06/02 06:33:37;;;;;;;3.47;3.17;;;19.10;99.90;;;;;;5015331;28;20432;-67
2022/06/02 06:36:11;;;;;;;3.77;3.37;;;18.40;99.90;;;;;;5015013;28;20427;-67
2022/06/02 06:39:01;;;;;;;3.33;3.03;;;18.70;99.90;;;;;;5014915;28;20768;-68
2022/06/02 06:41:59;;;;;;;3.37;3.10;;;19.00;99.90;;;;;;5014913;28;20470;-68
2022/06/02 06:44:33;;;;;;;4.00;3.00;;;18.30;99.90;;;;;;4991689;28;20426;-67
2022/06/02 06:47:16;;;;;;;4.30;3.20;;;17.90;99.90;;;;;;5014238;28;20447;-66
2022/06/02 06:49:59;;;;;;;5.40;3.73;;;18.40;99.90;;;;;;5014560;28;20478;-68
2022/06/02 06:52:43;;;;;;;3.80;3.40;;;18.00;99.90;;;;;;5014131;28;20446;-67
2022/06/02 06:55:36;;;;;;;3.70;3.40;;;17.80;99.90;;;;;;5014339;28;20395;-67
2022/06/02 06:58:13;;;;;;;4.20;3.87;;;18.30;99.90;;;;;;5014269;28;20497;-67
2022/06/02 07:00:56;;;;;;;7.43;3.77;;;17.80;99.90;;;;;;5014718;28;20795;-66
2022/06/02 07:03:38;;;;;;;3.27;2.97;;;17.60;99.90;;;;;;5014497;28;20624;-67
2022/06/02 07:06:17;;;;;;;3.57;3.27;;;18.00;99.90;;;;;;5013769;28;20486;-67
2022/06/02 07:08:54;;;;;;;3.50;2.87;;;18.30;99.90;;;;;;5014293;28;20436;-67
2022/06/02 07:14:39;;;;;;;3.33;3.03;;;19.70;99.90;;;;;;4960423;28;20418;-68
2022/06/02 07:17:17;;;;;;;2.80;2.60;;;19.30;99.90;;;;;;5014049;28;20397;-68
2022/06/02 07:20:02;;;;;;;4.20;3.80;;;19.30;99.90;;;;;;5014037;28;20531;-68
2022/06/02 07:22:48;;;;;;;3.50;3.20;;;19.40;99.90;;;;;;5013752;28;20435;-67
2022/06/02 07:25:34;;;;;;;3.63;3.33;;;17.90;99.90;;;;;;5013630;28;20402;-68
2022/06/02 07:28:18;;;;;;;3.97;3.27;;;18.70;99.90;;;;;;5013650;28;20779;-67
2022/06/02 07:31:08;;;;;;;3.97;3.20;;;19.20;99.90;;;;;;5013350;28;20397;-67
2022/06/02 07:34:08;;;;;;;4.00;2.90;;;19.90;99.90;;;;;;5013368;28;20427;-67
2022/06/02 07:36:58;;;;;;;3.10;2.90;;;20.50;99.90;;;;;;5013277;28;20409;-68
2022/06/02 07:39:35;;;;;;;3.10;2.80;;;20.30;99.90;;;;;;5013521;28;20419;-68
2022/06/02 07:42:11;;;;;;;5.17;2.70;;;21.10;99.90;;;;;;5013499;28;20417;-68
2022/06/02 07:45:05;;;;;;;2.50;2.40;;;21.10;99.90;;;;;;5013620;28;20899;-68
2022/06/02 07:47:34;;;;;;;2.43;2.17;;;19.30;99.90;;;;;;4999952;28;20571;-67
2022/06/02 07:50:28;;;;;;;2.67;2.47;;;19.60;99.90;;;;;;5013413;28;20553;-68
2022/06/02 07:53:17;;;;;;;2.23;2.03;;;19.80;99.90;;;;;;5013350;28;20508;-68
2022/06/02 07:55:52;;;;;;;2.60;2.07;;;20.70;99.90;;;;;;5052827;23;20579;-68
2022/06/02 07:58:39;;;;;;;2.30;2.10;;;20.40;99.90;;;;;;5033595;28;20488;-69
2022/06/02 08:01:16;;;;;;;3.00;2.80;;;20.80;99.90;;;;;;5033597;28;20400;-69
2022/06/02 08:04:03;;;;;;;2.23;2.03;;;21.70;99.90;;;;;;5033313;28;20440;-69
2022/06/02 08:06:52;;;;;;;1.73;1.60;;;22.30;99.90;;;;;;5033260;28;20445;-69
2022/06/02 08:09:30;;;;;;;2.60;2.40;;;21.10;99.90;;;;;;5033410;28;20417;-69
2022/06/02 08:12:27;;;;;;;2.83;2.07;;;20.50;99.90;;;;;;5033384;28;20397;-69
2022/06/02 08:15:17;;;;;;;2.90;2.00;;;19.80;99.90;;;;;;5010323;28;20434;-69
2022/06/02 08:18:04;;;;;;;1.80;1.50;;;21.60;99.90;;;;;;5033313;28;20896;-69
2022/06/02 08:20:52;;;;;;;2.30;1.60;;;20.80;98.40;;;;;;5033470;28;20919;-69
2022/06/02 08:23:24;;;;;;;1.67;1.57;;;19.00;99.90;;;;;;5033582;28;20500;-69
2022/06/02 08:26:08;;;;;;;2.77;2.03;;;20.20;99.90;;;;;;5034992;28;20478;-69
2022/06/02 08:28:54;;;;;;;2.50;1.77;;;21.30;99.80;;;;;;5033139;28;20421;-70
2022/06/02 08:32:16;;;;;;;1.97;1.77;;;21.80;98.90;;;;;;5033009;28;20757;-69
2022/06/02 08:35:06;;;;;;;1.50;1.40;;;21.10;98.90;;;;;;4990872;28;20439;-69
2022/06/02 08:37:51;;;;;;;3.37;1.20;;;19.60;99.90;;;;;;4991330;28;20498;-69
2022/06/02 08:40:41;;;;;;;1.60;1.50;;;20.50;99.90;;;;;;5028151;28;20413;-69
2022/06/02 08:43:28;;;;;;;1.23;1.10;;;20.10;99.90;;;;;;5032820;28;20405;-69
2022/06/02 08:46:27;;;;;;;1.30;1.20;;;20.50;99.30;;;;;;5032433;28;20449;-69
2022/06/02 08:49:27;;;;;;;1.83;1.73;;;20.70;99.30;;;;;;5032836;28;20416;-69
2022/06/02 08:52:34;;;;;;;4.10;2.47;;;20.10;98.30;;;;;;5016116;28;20835;-69
2022/06/02 08:55:58;;;;;;;2.33;1.33;;;21.80;97.20;;;;;;5016140;28;20484;-69
2022/06/02 08:58:32;;;;;;;1.10;1.00;;;20.70;96.90;;;;;;5032381;28;20419;-69
2022/06/02 09:01:43;;;;;;;1.63;1.53;;;20.30;97.60;;;;;;5032446;28;20422;-69
2022/06/02 09:04:47;;;;;;;1.20;1.10;;;19.50;98.00;;;;;;5032424;28;20424;-69
2022/06/02 09:07:38;;;;;;;2.10;1.50;;;21.30;96.20;;;;;;5032323;28;20476;-69
2022/06/02 09:10:43;;;;;;;1.40;1.10;;;22.30;95.00;;;;;;5032362;28;20403;-69
2022/06/02 09:13:39;;;;;;;1.10;1.00;;;22.00;93.90;;;;;;5026468;28;20759;-69
2022/06/02 09:16:50;;;;;;;2.27;1.30;;;21.00;94.60;;;;;;5032128;28;20410;-69
2022/06/02 09:19:46;;;;;;;1.20;1.10;;;20.50;94.00;;;;;;5032274;28;20405;-69
2022/06/02 09:22:23;;;;;;;1.93;0.83;;;21.50;94.10;;;;;;5032156;28;20494;-69
2022/06/02 09:25:17;;;;;;;1.43;1.13;;;21.30;92.80;;;;;;5031907;28;20472;-69
2022/06/02 09:28:20;;;;;;;2.50;1.50;;;20.60;93.30;;;;;;5032052;28;20550;-69
2022/06/02 09:30:55;;;;;;;1.20;1.10;;;19.90;95.20;;;;;;5031996;28;20409;-68
2022/06/02 09:33:50;;;;;;;1.57;1.23;;;21.00;92.90;;;;;;5032044;28;20455;-69
2022/06/02 09:36:40;;;;;;;1.53;1.43;;;19.70;94.20;;;;;;5031830;28;20475;-69
2022/06/02 09:39:20;;;;;;;1.30;1.20;;;20.90;96.00;;;;;;5032321;28;20432;-69
2022/06/02 09:42:17;;;;;;;1.50;1.40;;;21.80;92.80;;;;;;5031762;28;20908;-69
2022/06/02 09:45:09;;;;;;;0.90;0.90;;;21.50;93.10;;;;;;5031175;28;20417;-69
2022/06/02 09:48:11;;;;;;;0.90;0.83;;;20.40;92.30;;;;;;5031311;28;20877;-69
2022/06/02 09:50:59;;;;;;;1.27;1.10;;;20.90;91.90;;;;;;5031436;28;20812;-69
2022/06/02 09:54:08;;;;;;;1.13;1.00;;;20.10;93.60;;;;;;5030859;28;20440;-69
2022/06/02 09:57:04;;;;;;;1.30;1.20;;;20.50;92.90;;;;;;5031264;28;20417;-69
2022/06/02 09:59:40;;;;;;;2.30;2.20;;;21.60;93.10;;;;;;5031585;28;20889;-69
2022/06/02 10:02:05;;;;;;;1.20;1.10;;;20.20;93.70;;;;;;5031597;28;20769;-69
2022/06/02 10:05:05;;;;;;;1.17;1.07;;;20.90;92.40;;;;;;5031270;28;20511;-69
2022/06/02 10:07:53;;;;;;;2.73;1.70;;;21.20;93.10;;;;;;5031414;28;20241;-69
2022/06/02 10:10:44;;;;;;;1.40;1.30;;;20.60;91.50;;;;;;5031680;28;20412;-69
2022/06/02 10:13:40;;;;;;;1.83;1.30;;;20.20;92.70;;;;;;5034684;28;20440;-69
2022/06/02 10:16:31;;;;;;;1.83;1.20;;;19.70;93.50;;;;;;5031178;28;20404;-69
2022/06/02 10:19:32;;;;;;;1.10;1.00;;;20.80;92.30;;;;;;5027100;28;20439;-69
2022/06/02 10:22:30;;;;;;;1.53;1.43;;;20.60;91.80;;;;;;5015767;28;20769;-69
2022/06/02 10:25:19;;;;;;;2.10;1.37;;;20.80;91.10;;;;;;5031485;28;20445;-68
2022/06/02 10:28:11;;;;;;;1.10;1.00;;;19.80;92.80;;;;;;5032049;28;20452;-68
2022/06/02 10:30:49;;;;;;;1.47;1.37;;;20.10;93.30;;;;;;5032308;28;20399;-68
2022/06/02 10:33:40;;;;;;;1.60;1.30;;;19.10;92.10;;;;;;5031889;28;20783;-69
2022/06/02 10:36:35;;;;;;;1.53;1.13;;;19.10;92.90;;;;;;5031198;28;20418;-68
2022/06/02 10:39:32;;;;;;;3.17;1.20;;;19.50;94.10;;;;;;5031579;28;20406;-69
2022/06/02 10:42:30;;;;;;;1.50;1.30;;;19.60;92.70;;;;;;5026869;28;20439;-68
2022/06/02 10:45:38;;;;;;;2.30;1.20;;;19.40;94.60;;;;;;5031177;28;20430;-69
2022/06/02 10:48:21;;;;;;;1.30;1.20;;;19.30;93.90;;;;;;5031703;28;20419;-68
2022/06/02 10:50:51;;;;;;;1.87;1.10;;;19.10;94.80;;;;;;5031693;28;20501;-70
2022/06/02 10:53:29;;;;;;;3.67;1.60;;;19.50;94.50;;;;;;5030987;28;20441;-69
2022/06/02 10:56:15;;;;;;;1.63;1.50;;;18.40;94.30;;;;;;5030584;28;20487;-69
2022/06/02 10:59:21;;;;;;;1.07;1.00;;;18.50;94.00;;;;;;5031114;28;20402;-69
2022/06/02 11:02:12;;;;;;;1.07;0.97;;;19.10;92.70;;;;;;5031770;28;20413;-69
2022/06/02 11:05:24;;;;;;;1.40;1.20;;;18.70;92.60;;;;;;5034976;28;20441;-69
2022/06/02 11:07:52;;;;;;;1.60;1.50;;;18.20;93.90;;;;;;5035312;28;20958;-69
2022/06/02 11:10:45;;;;;;;1.33;1.23;;;19.00;93.90;;;;;;5034155;28;20445;-69
2022/06/02 11:13:29;;;;;;;1.10;0.90;;;19.70;94.20;;;;;;5034293;28;20406;-69
2022/06/02 11:16:03;;;;;;;2.50;1.27;;;19.90;92.90;;;;;;5032617;28;20461;-69
2022/06/02 11:18:52;;;;;;;1.13;1.07;;;19.20;93.10;;;;;;5033922;28;20410;-69
2022/06/02 11:21:45;;;;;;;1.33;1.23;;;18.70;92.50;;;;;;5034234;28;20402;-69
2022/06/02 11:24:22;;;;;;;2.03;1.10;;;18.70;93.00;;;;;;5034304;28;20437;-69
2022/06/02 11:27:27;;;;;;;1.50;1.30;;;18.90;92.30;;;;;;5033839;28;20888;-69
2022/06/02 11:30:33;;;;;;;1.20;1.10;;;19.30;92.00;;;;;;5033933;28;20790;-69
2022/06/02 11:33:26;;;;;;;1.20;1.10;;;19.30;92.50;;;;;;5033813;28;20399;-69
2022/06/02 11:36:13;;;;;;;0.90;0.90;;;19.90;92.00;;;;;;5033665;28;20433;-69
2022/06/02 11:39:22;;;;;;;1.37;1.10;;;19.30;90.80;;;;;;5033737;28;20795;-68
2022/06/02 11:42:16;;;;;;;1.60;1.50;;;19.00;91.40;;;;;;5033519;28;20402;-69
2022/06/02 11:45:00;;;;;;;1.10;1.00;;;19.10;91.60;;;;;;5033453;28;20860;-69
2022/06/02 11:47:45;;;;;;;2.23;1.00;;;19.40;90.80;;;;;;5033443;28;20441;-69
2022/06/02 11:50:46;;;;;;;3.97;1.13;;;20.00;91.40;;;;;;5033963;28;20407;-69
2022/06/02 11:53:41;;;;;;;1.00;0.90;;;18.80;88.30;;;;;;5033650;28;20403;-70
2022/06/02 11:56:35;;;;;;;1.87;1.10;;;19.40;90.20;;;;;;5033604;28;20896;-69
2022/06/02 11:59:25;;;;;;;1.40;0.93;;;19.30;88.90;;;;;;5034683;28;20472;-69
2022/06/02 12:02:05;;;;;;;3.43;0.93;;;20.00;89.60;;;;;;5032966;28;20420;-69
2022/06/02 12:04:47;;;;;;;1.20;0.97;;;19.60;88.50;;;;;;5033242;28;20429;-69
2022/06/02 12:07:58;;;;;;;2.07;1.10;;;19.70;86.90;;;;;;5033553;28;20555;-69
2022/06/02 12:10:44;;;;;;;1.03;1.00;;;19.90;87.70;;;;;;5033009;28;20401;-69
2022/06/02 12:13:39;;;;;;;1.03;0.93;;;20.30;86.00;;;;;;5033125;28;20402;-70
2022/06/02 12:16:22;;;;;;;1.27;0.80;;;20.30;85.20;;;;;;5032500;28;20396;-68
2022/06/02 12:19:12;;;;;;;1.87;1.07;;;20.10;87.40;;;;;;5032922;28;20415;-69
2022/06/02 12:21:49;;;;;;;1.63;0.87;;;19.70;87.50;;;;;;5033054;28;20439;-69
2022/06/02 12:24:51;;;;;;;0.87;0.87;;;20.00;86.70;;;;;;5033116;28;20419;-69
2022/06/02 12:27:45;;;;;;;0.70;0.70;;;20.30;85.70;;;;;;5026115;28;20469;-69
2022/06/02 12:30:37;;;;;;;2.60;2.40;;;20.50;85.50;;;;;;5033198;28;20412;-69
2022/06/02 12:33:25;;;;;;;1.73;1.00;;;20.20;85.60;;;;;;5033034;28;20410;-69
2022/06/02 12:36:27;;;;;;;1.50;0.97;;;20.00;83.60;;;;;;5032622;28;20427;-69
2022/06/02 12:39:21;;;;;;;1.07;0.97;;;19.80;83.80;;;;;;5032693;28;20430;-69
2022/06/02 12:42:24;;;;;;;0.90;0.90;;;19.80;84.90;;;;;;5032571;28;20410;-69
2022/06/02 12:45:34;;;;;;;1.30;1.20;;;20.00;85.50;;;;;;5032493;28;20439;-69
2022/06/02 12:48:20;;;;;;;1.47;1.00;;;20.40;83.70;;;;;;5032288;28;20452;-69
2022/06/02 12:51:23;;;;;;;1.30;0.70;;;20.80;83.80;;;;;;5032989;28;20413;-68
2022/06/02 12:54:26;;;;;;;0.90;0.80;;;20.80;80.60;;;;;;5032273;28;20418;-70
2022/06/02 12:57:34;;;;;;;0.90;0.90;;;20.90;79.40;;;;;;5032345;28;20856;-69
2022/06/02 13:00:37;;;;;;;1.10;0.73;;;20.20;78.70;;;;;;5032407;28;20980;-69
2022/06/02 13:03:38;;;;;;;1.00;0.90;;;19.40;79.20;;;;;;5032311;28;21025;-69
2022/06/02 13:06:34;;;;;;;1.20;1.10;;;19.50;79.80;;;;;;5032066;28;20799;-69
2022/06/02 13:09:34;;;;;;;1.73;0.90;;;20.20;77.30;;;;;;5032677;28;20432;-69
2022/06/02 13:12:26;;;;;;;1.53;0.90;;;20.80;78.70;;;;;;5032339;28;20463;-69
2022/06/02 13:15:20;;;;;;;1.00;0.80;;;20.30;77.80;;;;;;5031937;28;20484;-69
2022/06/02 13:18:17;;;;;;;1.73;0.80;;;20.60;76.50;;;;;;5032098;28;20408;-69
2022/06/02 13:21:14;;;;;;;0.80;0.80;;;20.80;77.80;;;;;;5031717;28;20420;-69
2022/06/02 13:24:11;;;;;;;1.00;0.90;;;20.30;77.50;;;;;;5031411;28;20432;-69
2022/06/02 13:27:13;;;;;;;0.90;0.90;;;19.70;75.60;;;;;;5030661;28;20447;-68
2022/06/02 13:30:20;;;;;;;1.00;0.90;;;19.80;77.90;;;;;;5031692;28;20418;-68
2022/06/02 13:33:16;;;;;;;0.93;0.93;;;19.70;77.50;;;;;;5032274;28;20750;-69
2022/06/02 13:36:13;;;;;;;1.20;1.10;;;20.10;78.30;;;;;;5031649;28;20431;-69
2022/06/02 13:38:59;;;;;;;1.00;0.90;;;20.30;76.90;;;;;;5031564;28;20453;-69
2022/06/02 13:42:11;;;;;;;0.90;0.90;;;20.60;77.70;;;;;;5031548;28;20395;-68
2022/06/02 13:45:09;;;;;;;0.80;0.80;;;20.10;77.80;;;;;;5031581;28;20426;-69
2022/06/02 13:47:37;;;;;;;1.23;1.00;;;19.60;78.40;;;;;;5033242;28;20451;-68
2022/06/02 13:50:21;;;;;;;0.80;0.70;;;19.80;80.60;;;;;;5030942;28;20572;-68
2022/06/02 13:53:12;;;;;;;1.30;1.00;;;19.60;80.50;;;;;;5031516;28;20406;-68
2022/06/02 13:59:17;;;;;;;0.97;0.83;;;19.20;82.50;;;;;;5031373;28;20407;-68
2022/06/02 14:01:49;;;;;;;0.83;0.83;;;19.60;83.20;;;;;;5031080;28;20403;-66
2022/06/02 14:04:41;;;;;;;1.37;0.97;;;19.50;83.10;;;;;;5031113;28;20459;-68
2022/06/02 14:07:37;;;;;;;1.10;0.93;;;19.60;83.10;;;;;;5031010;28;20516;-68
2022/06/02 14:10:30;;;;;;;0.83;0.83;;;19.50;84.20;;;;;;5031356;28;20474;-68
2022/06/02 14:13:06;;;;;;;1.00;0.90;;;19.90;84.00;;;;;;5031138;28;20929;-68
2022/06/02 14:16:06;;;;;;;1.33;1.10;;;20.00;84.30;;;;;;5030814;28;20454;-67
2022/06/02 14:19:11;;;;;;;0.80;0.80;;;19.90;84.10;;;;;;5031019;28;20407;-67
2022/06/02 14:22:01;;;;;;;1.20;1.10;;;19.60;84.10;;;;;;5030514;28;20416;-67
2022/06/02 14:24:58;;;;;;;2.00;1.07;;;19.60;85.10;;;;;;5030711;28;20427;-67
2022/06/02 14:27:44;;;;;;;1.23;1.13;;;19.60;86.50;;;;;;5031267;28;20968;-70
2022/06/02 14:30:37;;;;;;;1.20;1.10;;;19.60;85.60;;;;;;5030777;28;20411;-67
2022/06/02 14:33:23;;;;;;;0.90;0.90;;;19.60;84.30;;;;;;5030674;28;20499;-69
2022/06/02 14:36:07;;;;;;;2.43;1.00;;;19.50;84.70;;;;;;5030605;28;20511;-67
2022/06/02 14:38:50;;;;;;;1.10;0.90;;;19.70;84.80;;;;;;5032884;28;20816;-67
2022/06/02 14:41:34;;;;;;;1.00;0.90;;;19.40;85.60;;;;;;5034634;28;20813;-67
2022/06/02 14:44:29;;;;;;;1.17;1.07;;;19.40;85.60;;;;;;5034479;28;20923;-67
2022/06/02 14:47:21;;;;;;;2.13;1.20;;;19.40;86.40;;;;;;5034393;28;20447;-68
2022/06/02 14:50:12;;;;;;;0.80;0.80;;;19.50;85.90;;;;;;5034667;28;20453;-66
2022/06/02 14:52:51;;;;;;;1.23;1.00;;;19.60;85.60;;;;;;5034331;28;20456;-66